Time;durP1;ratioP1;P1;durP2;ratioP2;P2;SDS_P1;SDS_P2;PMS_P1;PMS_P2;Temp;Humidity;BMP_temperature;BMP_pressure;BME280_temperature;BME280_humidity;BME280_pressure;Samples;Min_cycle;Max_cycle;Signal;HPM_P1;HPM_P2
2022/11/17 00:01:18;;;;;;;69.40;12.70;;;10.70;99.90;;;;;;5103196;28;20652;-84
2022/11/17 00:03:45;;;;;;;68.78;11.73;;;10.70;99.90;;;;;;5102390;28;20179;-84
2022/11/17 00:06:11;;;;;;;68.63;10.05;;;10.70;99.90;;;;;;5104350;28;20156;-85
2022/11/17 00:08:36;;;;;;;74.80;14.45;;;10.70;99.90;;;;;;5103155;28;20520;-85
2022/11/17 00:11:03;;;;;;;68.80;9.57;;;10.80;99.90;;;;;;5101846;28;20183;-84
2022/11/17 00:16:18;;;;;;;74.15;12.57;;;10.80;99.90;;;;;;5103407;28;20157;-85
2022/11/17 00:21:29;;;;;;;70.63;9.63;;;10.90;99.90;;;;;;5102585;28;20242;-84
2022/11/17 00:23:55;;;;;;;67.32;7.10;;;10.90;99.90;;;;;;5104365;28;20163;-84
2022/11/17 00:26:22;;;;;;;69.25;7.72;;;10.90;99.90;;;;;;5102881;28;20163;-84
2022/11/17 00:28:56;;;;;;;68.60;9.05;;;10.90;99.90;;;;;;5102106;28;20159;-84
2022/11/17 00:34:12;;;;;;;68.85;6.78;;;10.90;99.90;;;;;;5101749;28;20682;-84
2022/11/17 00:36:47;;;;;;;68.43;7.22;;;10.90;99.90;;;;;;5103010;28;20187;-84
2022/11/17 00:39:14;;;;;;;68.60;7.80;;;10.90;99.90;;;;;;5101827;28;20221;-84
2022/11/17 00:41:40;;;;;;;68.78;7.75;;;10.90;99.90;;;;;;5102513;28;20590;-85
2022/11/17 00:44:06;;;;;;;66.93;8.75;;;11.00;99.90;;;;;;5101681;28;20167;-84
2022/11/17 00:46:33;;;;;;;70.80;7.97;;;11.00;99.90;;;;;;5100613;28;20206;-84
2022/11/17 00:48:59;;;;;;;81.65;26.45;;;11.10;99.90;;;;;;5100853;28;20163;-85
2022/11/17 00:51:25;;;;;;;68.20;11.23;;;11.10;99.90;;;;;;5102035;28;20186;-84
2022/11/17 00:53:51;;;;;;;68.00;10.60;;;11.20;99.90;;;;;;5101022;28;20164;-84
2022/11/17 00:56:17;;;;;;;74.97;11.93;;;11.30;99.90;;;;;;5102768;28;20159;-84
2022/11/17 00:58:43;;;;;;;81.20;13.17;;;11.30;99.90;;;;;;5103138;28;20532;-85
2022/11/17 01:01:09;;;;;;;77.85;12.77;;;11.30;99.90;;;;;;5103556;28;20417;-84
2022/11/17 01:03:35;;;;;;;71.53;12.57;;;11.30;99.90;;;;;;5102306;28;20219;-84
2022/11/17 01:06:07;;;;;;;67.37;11.77;;;11.20;99.90;;;;;;5102864;28;20454;-84
2022/11/17 01:08:34;;;;;;;69.07;12.25;;;11.20;99.90;;;;;;5101920;28;20510;-84
2022/11/17 01:11:06;;;;;;;68.35;10.35;;;11.10;99.90;;;;;;5102990;28;20241;-84
2022/11/17 01:13:37;;;;;;;68.15;10.45;;;11.10;99.90;;;;;;5102916;28;20192;-84
2022/11/17 01:16:14;;;;;;;73.97;10.35;;;11.00;99.90;;;;;;5103607;28;20167;-85
2022/11/17 01:18:41;;;;;;;67.63;9.30;;;11.00;99.90;;;;;;5103799;28;20159;-85
2022/11/17 01:21:10;;;;;;;67.60;9.35;;;11.00;99.90;;;;;;5102906;28;20183;-85
2022/11/17 01:23:37;;;;;;;68.82;9.75;;;11.00;99.90;;;;;;5103242;28;20170;-85
2022/11/17 01:26:05;;;;;;;66.68;6.65;;;11.00;99.90;;;;;;5103104;28;20312;-85
2022/11/17 01:28:31;;;;;;;67.43;7.47;;;11.00;99.90;;;;;;5101851;28;20182;-85
2022/11/17 01:31:12;;;;;;;69.13;7.13;;;11.00;99.90;;;;;;5102446;28;20676;-84
2022/11/17 01:33:38;;;;;;;68.05;7.70;;;11.00;99.90;;;;;;5097577;28;20397;-84
2022/11/17 01:36:12;;;;;;;70.75;8.55;;;11.10;99.90;;;;;;5096298;28;20172;-83
2022/11/17 01:38:38;;;;;;;69.88;12.43;;;11.10;99.90;;;;;;5093905;28;20249;-84
2022/11/17 01:41:11;;;;;;;70.28;11.43;;;11.10;99.90;;;;;;5093631;28;20579;-83
2022/11/17 01:43:43;;;;;;;69.45;8.70;;;11.10;99.90;;;;;;5094941;28;20143;-84
2022/11/17 01:46:16;;;;;;;67.32;11.02;;;11.10;99.90;;;;;;5094086;28;20167;-84
2022/11/17 01:48:44;;;;;;;68.38;10.38;;;11.10;99.90;;;;;;5095647;28;20156;-84
2022/11/17 01:51:14;;;;;;;71.55;11.13;;;11.10;99.90;;;;;;5097607;28;20183;-84
2022/11/17 01:53:42;;;;;;;67.90;10.88;;;11.10;99.90;;;;;;5099628;28;20581;-85
2022/11/17 01:56:14;;;;;;;69.40;8.90;;;11.10;99.90;;;;;;5100477;28;20532;-84
2022/11/17 01:58:46;;;;;;;67.60;9.63;;;11.10;99.90;;;;;;5101500;28;20147;-85
2022/11/17 02:01:11;;;;;;;66.60;8.45;;;11.10;99.90;;;;;;5098563;28;20706;-84
2022/11/17 02:03:38;;;;;;;68.37;9.00;;;11.10;99.90;;;;;;5097972;28;20216;-84
2022/11/17 02:06:34;;;;;;;70.07;10.38;;;11.10;99.90;;;;;;5100706;28;20170;-84
2022/11/17 02:09:01;;;;;;;70.25;12.80;;;11.10;99.90;;;;;;5100166;28;20179;-85
2022/11/17 02:11:34;;;;;;;68.03;8.95;;;11.10;99.90;;;;;;5101837;28;20743;-85
2022/11/17 02:14:01;;;;;;;66.22;8.57;;;11.10;99.90;;;;;;5100230;28;20187;-85
2022/11/17 02:16:27;;;;;;;70.25;10.05;;;11.00;99.90;;;;;;5100439;28;20192;-85
2022/11/17 02:18:53;;;;;;;67.20;8.80;;;11.00;99.90;;;;;;5101675;28;20238;-84
2022/11/17 02:22:03;;;;;;;67.87;9.40;;;11.00;99.90;;;;;;5100508;28;20230;-84
2022/11/17 02:24:40;;;;;;;70.13;9.30;;;11.00;99.90;;;;;;5073058;28;20179;-84
2022/11/17 02:27:54;;;;;;;65.80;6.88;;;11.00;99.90;;;;;;5099680;28;20163;-85
2022/11/17 02:30:21;;;;;;;66.53;10.13;;;11.00;99.90;;;;;;5085945;28;20290;-85
2022/11/17 02:33:02;;;;;;;67.60;10.55;;;11.00;99.90;;;;;;5099448;28;20226;-85
2022/11/17 02:35:46;;;;;;;68.78;9.98;;;11.00;99.90;;;;;;5098869;28;20206;-85
2022/11/17 02:38:18;;;;;;;69.97;12.48;;;11.00;99.90;;;;;;5099705;28;20198;-85
2022/11/17 02:41:25;;;;;;;66.05;6.45;;;11.00;99.90;;;;;;5099994;28;20274;-84
2022/11/17 02:44:05;;;;;;;67.60;12.70;;;11.00;99.90;;;;;;5036223;28;20165;-85
2022/11/17 02:46:39;;;;;;;69.18;11.38;;;11.00;99.90;;;;;;5093112;28;20238;-84
2022/11/17 02:49:29;;;;;;;66.90;8.65;;;10.90;99.90;;;;;;5098886;28;20579;-84
2022/11/17 02:51:57;;;;;;;66.63;5.65;;;11.00;99.90;;;;;;5099232;28;20152;-85
2022/11/17 02:54:26;;;;;;;69.97;6.55;;;11.00;99.90;;;;;;5099405;28;20191;-85
2022/11/17 02:56:52;;;;;;;69.28;8.27;;;10.90;99.90;;;;;;5099010;28;20163;-85
2022/11/17 02:59:28;;;;;;;68.45;7.50;;;10.90;99.90;;;;;;5097600;28;20187;-85
2022/11/17 03:02:14;;;;;;;67.28;12.32;;;10.90;99.90;;;;;;5099237;28;20515;-84
2022/11/17 03:04:52;;;;;;;65.35;6.10;;;10.90;99.90;;;;;;5099604;28;20177;-84
2022/11/17 03:07:17;;;;;;;68.72;13.27;;;11.00;99.90;;;;;;5100761;28;20162;-85
2022/11/17 03:10:02;;;;;;;64.97;5.17;;;10.90;99.90;;;;;;5097645;28;20244;-84
2022/11/17 03:12:46;;;;;;;66.53;7.03;;;10.90;99.90;;;;;;5097639;28;20159;-85
2022/11/17 03:15:21;;;;;;;68.20;9.05;;;10.90;99.90;;;;;;5099063;28;20179;-85
2022/11/17 03:18:14;;;;;;;66.72;9.60;;;10.90;99.90;;;;;;5099379;28;20143;-84
2022/11/17 03:21:03;;;;;;;69.57;8.88;;;10.90;99.90;;;;;;5099501;28;20182;-85
2022/11/17 03:23:45;;;;;;;66.75;7.28;;;10.90;99.90;;;;;;5087168;28;20172;-84
2022/11/17 03:26:28;;;;;;;66.65;5.60;;;10.90;99.90;;;;;;5098676;28;20238;-85
2022/11/17 03:28:56;;;;;;;65.03;6.65;;;10.90;99.90;;;;;;5098420;28;20147;-85
2022/11/17 03:31:23;;;;;;;67.95;11.73;;;10.90;99.90;;;;;;5099048;28;20174;-84
2022/11/17 03:33:49;;;;;;;67.55;7.25;;;10.90;99.90;;;;;;5097960;28;20163;-84
2022/11/17 03:36:19;;;;;;;66.10;6.30;;;10.80;99.90;;;;;;5097480;28;20155;-84
2022/11/17 03:39:03;;;;;;;68.75;11.68;;;10.70;99.90;;;;;;5099423;28;20480;-84
2022/11/17 03:41:34;;;;;;;65.95;7.55;;;10.70;99.90;;;;;;5097916;28;20265;-84
2022/11/17 03:44:03;;;;;;;66.03;6.43;;;10.70;99.90;;;;;;5099787;28;20203;-84
2022/11/17 03:46:30;;;;;;;66.10;5.63;;;10.70;99.90;;;;;;5097931;28;20168;-84
2022/11/17 03:49:25;;;;;;;82.57;5.95;;;10.70;99.90;;;;;;5099027;28;20162;-85
2022/11/17 03:52:10;;;;;;;65.57;6.93;;;10.70;99.90;;;;;;5097739;28;20144;-84
2022/11/17 03:54:36;;;;;;;65.82;5.65;;;10.70;99.90;;;;;;5098455;28;20683;-84
2022/11/17 03:57:22;;;;;;;64.88;5.72;;;10.60;99.90;;;;;;5100256;28;20159;-84
2022/11/17 04:00:09;;;;;;;64.95;6.22;;;10.60;99.90;;;;;;5099664;28;20243;-84
2022/11/17 04:02:34;;;;;;;66.72;7.18;;;10.60;99.90;;;;;;5102722;28;20211;-85
2022/11/17 04:05:06;;;;;;;65.10;6.43;;;10.60;99.90;;;;;;5100984;28;20202;-84
2022/11/17 04:07:33;;;;;;;69.22;9.50;;;10.60;99.90;;;;;;5100734;28;20163;-84
2022/11/17 04:09:58;;;;;;;66.38;6.70;;;10.50;99.90;;;;;;5102550;28;20247;-85
2022/11/17 04:17:56;;;;;;;65.22;5.15;;;10.60;99.90;;;;;;5103312;28;20204;-84
2022/11/17 04:20:22;;;;;;;65.20;6.30;;;10.50;99.90;;;;;;5102713;28;20179;-84
2022/11/17 04:23:06;;;;;;;65.80;7.10;;;10.50;99.90;;;;;;5102925;28;20632;-84
2022/11/17 04:31:08;;;;;;;67.90;5.32;;;10.50;99.90;;;;;;5102003;28;20240;-84
2022/11/17 04:33:36;;;;;;;65.25;6.20;;;10.50;99.90;;;;;;5100006;28;20167;-84
2022/11/17 04:36:02;;;;;;;65.32;6.03;;;10.40;99.90;;;;;;5100000;28;20198;-84
2022/11/17 04:38:28;;;;;;;68.05;6.45;;;10.40;99.90;;;;;;5100927;28;20216;-84
2022/11/17 04:43:45;;;;;;;67.32;5.97;;;10.50;99.90;;;;;;5102116;28;20151;-84
2022/11/17 04:46:11;;;;;;;65.97;5.95;;;10.60;99.90;;;;;;5100709;28;20159;-84
2022/11/17 04:48:37;;;;;;;67.60;7.10;;;10.60;99.90;;;;;;5099688;28;20674;-84
2022/11/17 04:51:05;;;;;;;65.80;5.90;;;10.60;99.90;;;;;;5101044;28;20183;-84
2022/11/17 04:53:31;;;;;;;68.28;6.75;;;10.60;99.90;;;;;;5101272;28;20159;-84
2022/11/17 04:56:01;;;;;;;67.00;6.47;;;10.60;99.90;;;;;;5101896;28;20217;-84
2022/11/17 04:58:27;;;;;;;68.70;6.57;;;10.60;99.90;;;;;;5102044;28;20240;-84
2022/11/17 05:00:52;;;;;;;64.87;6.27;;;10.70;99.90;;;;;;5100605;28;20660;-85
2022/11/17 05:03:18;;;;;;;65.30;6.50;;;10.70;99.90;;;;;;5100402;28;20170;-85
2022/11/17 05:05:48;;;;;;;65.40;5.30;;;10.70;99.90;;;;;;5102561;28;20697;-84
2022/11/17 05:08:14;;;;;;;66.40;6.30;;;10.80;99.90;;;;;;5100257;28;20194;-84
2022/11/17 05:13:25;;;;;;;67.35;8.57;;;10.80;99.90;;;;;;5102666;28;20163;-84
2022/11/17 05:18:42;;;;;;;67.25;6.25;;;10.80;99.90;;;;;;5101835;28;20205;-84
2022/11/17 05:21:09;;;;;;;67.85;9.65;;;10.80;99.90;;;;;;5102602;28;20262;-84
2022/11/17 05:23:54;;;;;;;68.80;8.40;;;10.80;99.90;;;;;;5101758;28;20195;-84
2022/11/17 05:26:29;;;;;;;66.38;9.52;;;10.80;99.90;;;;;;5100531;28;20633;-84
2022/11/17 05:28:56;;;;;;;68.72;8.82;;;10.90;99.90;;;;;;5100861;28;20169;-84
2022/11/17 05:31:23;;;;;;;68.00;8.43;;;10.80;99.90;;;;;;5099821;28;20188;-85
2022/11/17 05:33:49;;;;;;;66.95;7.57;;;10.80;99.90;;;;;;5101426;28;20163;-84
2022/11/17 05:36:16;;;;;;;68.90;7.15;;;10.80;99.90;;;;;;5098857;28;20213;-84
2022/11/17 05:38:41;;;;;;;69.00;9.43;;;10.80;99.90;;;;;;5098904;28;20667;-84
2022/11/17 05:41:08;;;;;;;65.30;6.60;;;10.80;99.90;;;;;;5196035;22;20223;-87
2022/11/17 05:43:34;;;;;;;67.40;7.03;;;10.80;99.90;;;;;;5106389;28;20197;-87
2022/11/17 05:45:59;;;;;;;67.00;7.40;;;10.80;99.90;;;;;;5106198;28;20160;-87
2022/11/17 05:48:25;;;;;;;66.70;8.17;;;10.80;99.90;;;;;;5106072;28;20430;-87
2022/11/17 05:50:55;;;;;;;66.37;6.10;;;10.80;99.90;;;;;;5105431;28;20424;-87
2022/11/17 05:53:22;;;;;;;67.05;8.40;;;10.80;99.90;;;;;;5104438;28;20977;-87
2022/11/17 05:56:09;;;;;;;69.13;10.02;;;10.90;99.90;;;;;;5104479;28;20207;-87
2022/11/17 05:58:38;;;;;;;69.85;11.32;;;10.90;99.90;;;;;;5105221;28;20250;-87
2022/11/17 06:01:08;;;;;;;67.30;8.85;;;10.90;99.90;;;;;;5104679;28;20187;-87
2022/11/17 06:03:42;;;;;;;66.15;7.40;;;10.90;99.90;;;;;;5104496;28;20159;-87
2022/11/17 06:06:09;;;;;;;66.35;8.07;;;10.90;99.90;;;;;;5105804;28;20147;-87
2022/11/17 06:08:36;;;;;;;67.38;5.97;;;10.80;99.90;;;;;;5104491;28;20217;-86
2022/11/17 06:11:01;;;;;;;67.38;6.60;;;10.70;99.90;;;;;;5106842;28;20659;-87
2022/11/17 06:13:27;;;;;;;66.57;6.20;;;10.70;99.90;;;;;;5106234;28;20186;-87
2022/11/17 06:15:56;;;;;;;72.03;6.97;;;10.70;99.90;;;;;;5104935;28;20454;-87
2022/11/17 06:18:27;;;;;;;68.50;7.88;;;10.80;99.90;;;;;;5106923;28;20156;-87
2022/11/17 06:20:53;;;;;;;65.68;6.10;;;10.80;99.90;;;;;;5106971;28;20179;-87
2022/11/17 06:23:24;;;;;;;67.78;6.75;;;10.70;99.90;;;;;;5107215;28;20156;-87
2022/11/17 06:25:50;;;;;;;68.47;8.63;;;10.70;99.90;;;;;;5107441;28;20155;-86
2022/11/17 06:28:20;;;;;;;67.20;8.30;;;10.70;99.90;;;;;;5107997;28;20502;-87
2022/11/17 06:30:48;;;;;;;69.30;11.82;;;10.80;99.90;;;;;;5107487;28;20251;-86
2022/11/17 06:33:16;;;;;;;69.32;11.52;;;10.90;99.90;;;;;;5104876;28;20597;-87
2022/11/17 06:35:45;;;;;;;78.43;10.20;;;10.80;99.90;;;;;;5104577;28;20185;-86
2022/11/17 06:38:10;;;;;;;69.93;12.68;;;10.90;99.90;;;;;;5105916;28;20170;-86
2022/11/17 06:40:36;;;;;;;68.30;11.40;;;10.80;99.90;;;;;;5105947;28;20191;-86
2022/11/17 06:43:11;;;;;;;68.00;11.93;;;10.70;99.90;;;;;;5106220;28;20202;-86
2022/11/17 06:45:41;;;;;;;67.47;8.32;;;10.70;99.90;;;;;;5106062;28;20179;-86
2022/11/17 06:48:12;;;;;;;70.45;11.65;;;10.60;99.90;;;;;;5110225;28;20155;-85
2022/11/17 06:50:38;;;;;;;68.47;9.30;;;10.70;99.90;;;;;;5114496;28;20202;-84
2022/11/17 06:53:06;;;;;;;71.20;8.85;;;10.80;99.90;;;;;;5114847;28;20230;-86
2022/11/17 06:55:33;;;;;;;67.75;7.70;;;10.80;99.90;;;;;;5114896;28;20218;-85
2022/11/17 06:58:01;;;;;;;67.07;6.93;;;10.80;99.90;;;;;;5112843;28;20163;-85
2022/11/17 07:00:28;;;;;;;71.47;7.20;;;10.80;99.90;;;;;;5112206;28;20190;-85
2022/11/17 07:03:05;;;;;;;68.30;6.97;;;10.80;99.90;;;;;;5113944;28;20660;-84
2022/11/17 07:05:33;;;;;;;67.30;6.47;;;10.80;99.90;;;;;;5116573;28;20152;-85
2022/11/17 07:08:00;;;;;;;68.53;7.65;;;10.80;99.90;;;;;;5114374;28;20167;-85
2022/11/17 07:10:27;;;;;;;66.47;7.00;;;10.80;99.90;;;;;;5115158;28;20677;-86
2022/11/17 07:12:53;;;;;;;67.75;9.35;;;10.80;99.90;;;;;;5116219;28;20163;-85
2022/11/17 07:15:20;;;;;;;69.38;7.28;;;10.80;99.90;;;;;;5115577;28;20195;-85
2022/11/17 07:17:46;;;;;;;69.25;10.35;;;10.80;99.90;;;;;;5114899;28;20163;-85
2022/11/17 07:20:13;;;;;;;65.82;9.05;;;10.80;99.90;;;;;;5115040;28;20184;-86
2022/11/17 07:22:40;;;;;;;66.05;9.82;;;10.80;99.90;;;;;;5110082;28;20219;-86
2022/11/17 07:25:06;;;;;;;66.88;8.20;;;10.90;99.90;;;;;;5104381;28;20167;-87
2022/11/17 07:27:32;;;;;;;67.80;7.63;;;10.90;99.90;;;;;;5102742;28;20202;-87
2022/11/17 07:29:58;;;;;;;65.47;5.87;;;10.80;99.90;;;;;;5104418;28;20567;-87
2022/11/17 07:32:24;;;;;;;64.30;3.70;;;10.80;99.90;;;;;;5106752;28;20432;-87
2022/11/17 07:34:50;;;;;;;64.43;4.93;;;10.80;99.90;;;;;;5107900;28;20182;-87
2022/11/17 07:37:16;;;;;;;66.82;6.10;;;10.80;99.90;;;;;;5108627;28;20405;-87
2022/11/17 07:39:42;;;;;;;64.57;4.82;;;10.70;99.90;;;;;;5107679;28;20546;-87
2022/11/17 07:42:08;;;;;;;64.37;5.60;;;10.70;99.90;;;;;;5107618;28;20205;-87
2022/11/17 07:44:34;;;;;;;63.70;3.80;;;10.70;99.90;;;;;;5108756;28;20397;-87
2022/11/17 07:47:00;;;;;;;66.37;5.03;;;10.60;99.90;;;;;;5107020;28;20202;-87
2022/11/17 07:49:26;;;;;;;68.10;4.32;;;10.60;99.90;;;;;;5107023;28;20427;-87
2022/11/17 07:51:52;;;;;;;66.38;4.53;;;10.70;99.90;;;;;;5106360;28;20220;-86
2022/11/17 07:54:18;;;;;;;64.68;4.70;;;10.70;99.90;;;;;;5108619;28;20191;-87
2022/11/17 07:56:44;;;;;;;66.00;6.37;;;10.70;99.90;;;;;;5108629;28;20169;-87
2022/11/17 07:59:10;;;;;;;65.35;7.28;;;10.80;99.90;;;;;;5109585;28;20413;-85
2022/11/17 08:01:36;;;;;;;65.87;8.60;;;10.80;99.90;;;;;;5107978;28;20628;-87
2022/11/17 08:04:02;;;;;;;71.07;6.95;;;10.80;99.90;;;;;;5106280;28;20405;-87
2022/11/17 08:06:28;;;;;;;67.73;7.67;;;10.90;99.90;;;;;;5108149;28;20159;-87
2022/11/17 08:08:54;;;;;;;68.10;7.87;;;10.90;99.90;;;;;;5105156;28;20192;-86
2022/11/17 08:11:20;;;;;;;64.47;7.67;;;11.00;99.90;;;;;;5108253;28;20162;-87
2022/11/17 08:13:46;;;;;;;65.27;8.30;;;11.00;99.90;;;;;;5107856;28;20401;-87
2022/11/17 08:16:13;;;;;;;64.90;7.50;;;11.00;99.90;;;;;;5108860;28;20444;-87
2022/11/17 08:18:39;;;;;;;64.95;8.38;;;11.10;99.90;;;;;;5108628;28;20421;-87
2022/11/17 08:21:06;;;;;;;70.05;11.05;;;11.10;99.90;;;;;;5107405;28;20191;-87
2022/11/17 08:23:33;;;;;;;68.05;11.02;;;11.20;99.90;;;;;;5107889;28;20156;-87
2022/11/17 08:26:00;;;;;;;64.68;7.18;;;11.20;99.90;;;;;;5107746;28;20171;-87
2022/11/17 08:28:25;;;;;;;67.20;10.93;;;11.20;99.90;;;;;;5109876;28;20163;-87
2022/11/17 08:30:51;;;;;;;65.47;7.23;;;11.20;99.90;;;;;;5108213;28;20233;-87
2022/11/17 08:33:17;;;;;;;66.50;9.97;;;11.20;99.90;;;;;;5108890;28;20532;-87
2022/11/17 08:35:43;;;;;;;67.63;7.97;;;11.20;99.90;;;;;;5109232;28;20259;-87
2022/11/17 08:38:14;;;;;;;66.63;13.10;;;11.20;99.90;;;;;;5109669;28;20948;-87
2022/11/17 08:40:40;;;;;;;67.78;11.30;;;11.30;99.90;;;;;;5107599;28;20200;-87
2022/11/17 08:43:06;;;;;;;66.30;9.40;;;11.40;99.90;;;;;;5108357;28;20171;-87
2022/11/17 08:45:32;;;;;;;67.47;12.67;;;11.40;99.90;;;;;;5108774;28;20168;-87
2022/11/17 08:47:58;;;;;;;66.77;12.13;;;11.50;99.90;;;;;;5107844;28;20439;-86
2022/11/17 08:50:24;;;;;;;75.13;11.03;;;11.40;99.90;;;;;;5108126;28;20187;-86
2022/11/17 08:52:51;;;;;;;68.10;11.40;;;11.50;99.90;;;;;;5108017;28;20409;-87
2022/11/17 08:55:17;;;;;;;65.90;8.80;;;11.50;99.90;;;;;;5109134;28;20447;-85
2022/11/17 08:57:43;;;;;;;65.70;8.45;;;11.60;99.90;;;;;;5109852;28;20164;-86
2022/11/17 09:00:09;;;;;;;70.00;10.77;;;11.70;99.90;;;;;;5109137;28;20254;-87
2022/11/17 09:02:37;;;;;;;66.60;9.88;;;11.80;99.90;;;;;;5109232;28;20226;-87
2022/11/17 09:05:03;;;;;;;66.95;8.80;;;11.80;99.90;;;;;;5109183;28;20166;-86
2022/11/17 09:07:33;;;;;;;67.05;8.10;;;11.80;99.90;;;;;;5108187;28;20231;-86
2022/11/17 09:09:59;;;;;;;68.57;8.00;;;11.80;99.90;;;;;;5108521;28;20195;-86
2022/11/17 09:12:25;;;;;;;71.75;9.88;;;11.80;99.90;;;;;;5108280;28;20166;-87
2022/11/17 09:14:51;;;;;;;65.80;7.27;;;11.80;99.90;;;;;;5106266;28;20268;-87
2022/11/17 09:17:16;;;;;;;66.07;7.60;;;11.90;99.90;;;;;;5108067;28;20409;-86
2022/11/17 09:19:42;;;;;;;66.07;8.93;;;12.00;99.90;;;;;;5107994;28;20175;-86
2022/11/17 09:22:08;;;;;;;67.37;8.67;;;12.00;99.90;;;;;;5106062;28;20164;-87
2022/11/17 09:24:33;;;;;;;67.33;8.60;;;12.20;99.90;;;;;;5107749;28;20178;-87
2022/11/17 09:27:01;;;;;;;68.63;6.10;;;12.40;99.90;;;;;;5106497;28;20244;-86
2022/11/17 09:29:28;;;;;;;69.68;5.70;;;12.40;99.90;;;;;;5105867;28;20191;-87
2022/11/17 09:31:54;;;;;;;64.60;5.68;;;12.40;99.90;;;;;;5106178;28;20230;-87
2022/11/17 09:34:20;;;;;;;65.80;6.43;;;12.40;99.90;;;;;;5106172;28;20211;-86
2022/11/17 09:36:47;;;;;;;64.47;5.27;;;12.40;99.90;;;;;;5106296;28;20159;-87
2022/11/17 09:39:14;;;;;;;66.20;6.45;;;12.40;99.90;;;;;;5106036;28;20186;-86
2022/11/17 09:41:46;;;;;;;66.88;6.22;;;12.40;99.90;;;;;;5105188;28;20198;-87
2022/11/17 09:44:24;;;;;;;65.80;6.40;;;12.40;99.90;;;;;;5105711;28;20147;-87
2022/11/17 09:46:53;;;;;;;66.88;5.93;;;12.40;99.90;;;;;;5105305;28;20143;-87
2022/11/17 09:49:38;;;;;;;66.20;6.15;;;12.40;99.90;;;;;;5101924;28;20216;-86
2022/11/17 09:52:33;;;;;;;64.68;5.70;;;12.40;99.90;;;;;;5106087;28;20208;-87
2022/11/17 09:55:26;;;;;;;64.65;5.68;;;12.50;99.90;;;;;;5102735;28;20236;-87
2022/11/17 09:58:02;;;;;;;67.63;7.25;;;12.50;99.90;;;;;;5103915;28;20155;-87
2022/11/17 10:00:30;;;;;;;66.43;6.30;;;12.60;99.90;;;;;;5101670;28;20687;-86
2022/11/17 10:02:56;;;;;;;65.97;6.97;;;12.50;99.90;;;;;;5105319;28;20160;-86
2022/11/17 10:05:31;;;;;;;66.47;8.60;;;12.50;99.90;;;;;;5104731;28;20167;-86
2022/11/17 10:08:05;;;;;;;71.20;10.32;;;12.70;99.90;;;;;;5104540;28;20163;-87
2022/11/17 10:10:46;;;;;;;71.15;11.65;;;12.70;99.90;;;;;;5103960;28;20206;-86
2022/11/17 10:13:30;;;;;;;66.97;11.05;;;12.80;99.90;;;;;;5103399;28;20151;-86
2022/11/17 10:16:06;;;;;;;67.38;9.35;;;12.90;99.90;;;;;;5104071;28;20179;-86
2022/11/17 10:18:34;;;;;;;66.32;9.90;;;12.80;99.90;;;;;;5104038;28;20200;-86
2022/11/17 10:21:01;;;;;;;65.38;8.20;;;12.80;99.90;;;;;;5101599;28;20194;-87
2022/11/17 10:23:34;;;;;;;67.03;8.52;;;12.70;99.90;;;;;;5104646;28;20179;-86
2022/11/17 10:26:06;;;;;;;65.57;6.30;;;12.70;99.90;;;;;;5104459;28;20254;-86
2022/11/17 10:28:32;;;;;;;66.68;5.55;;;12.80;99.90;;;;;;5102433;28;20251;-86
2022/11/17 10:31:12;;;;;;;68.83;3.90;;;12.80;99.90;;;;;;5104826;28;20183;-87
2022/11/17 10:33:41;;;;;;;64.55;3.80;;;13.00;99.90;;;;;;5104594;28;20788;-86
2022/11/17 10:36:30;;;;;;;65.95;3.85;;;13.00;99.90;;;;;;5104018;28;20198;-86
2022/11/17 10:38:58;;;;;;;64.47;3.30;;;13.00;99.90;;;;;;5104290;28;20150;-87
2022/11/17 10:41:40;;;;;;;64.93;3.78;;;13.00;99.90;;;;;;5104261;28;20171;-86
2022/11/17 10:44:16;;;;;;;63.88;3.78;;;13.00;99.90;;;;;;5103628;28;20242;-87
2022/11/17 10:47:00;;;;;;;64.25;2.97;;;12.90;99.90;;;;;;5103641;28;20147;-87
2022/11/17 10:49:39;;;;;;;64.25;3.28;;;12.80;99.90;;;;;;5104560;28;20187;-86
2022/11/17 10:52:08;;;;;;;65.50;3.40;;;12.80;99.90;;;;;;5104557;28;20139;-86
2022/11/17 10:54:34;;;;;;;66.35;3.35;;;12.80;99.90;;;;;;5103708;28;20679;-87
2022/11/17 10:57:04;;;;;;;65.47;3.60;;;12.80;99.90;;;;;;5104854;28;20204;-86
2022/11/17 10:59:40;;;;;;;65.28;3.50;;;12.80;99.90;;;;;;5102303;28;20217;-87
2022/11/17 11:02:29;;;;;;;63.58;3.67;;;12.90;99.90;;;;;;5104667;28;20183;-86
2022/11/17 11:05:15;;;;;;;64.20;3.53;;;12.80;99.90;;;;;;5104600;28;20579;-86
2022/11/17 11:07:41;;;;;;;64.28;3.45;;;12.80;99.90;;;;;;5108169;28;20212;-86
2022/11/17 11:10:15;;;;;;;64.88;4.13;;;12.70;99.90;;;;;;5108623;28;20186;-86
2022/11/17 11:13:10;;;;;;;64.70;4.10;;;12.70;99.90;;;;;;5108498;28;20218;-86
2022/11/17 11:15:36;;;;;;;65.00;4.00;;;12.80;99.90;;;;;;5108742;28;20175;-86
2022/11/17 11:18:15;;;;;;;65.47;4.45;;;12.80;99.90;;;;;;5108889;28;20174;-86
2022/11/17 11:21:08;;;;;;;67.20;3.25;;;12.80;99.90;;;;;;5107904;28;20186;-86
2022/11/17 11:23:58;;;;;;;67.18;3.85;;;12.70;99.90;;;;;;5107648;28;20281;-86
2022/11/17 11:26:50;;;;;;;67.50;4.90;;;12.70;99.90;;;;;;5106213;28;20166;-87
2022/11/17 11:29:20;;;;;;;65.68;3.55;;;12.80;99.90;;;;;;5102181;28;20187;-86
2022/11/17 11:31:58;;;;;;;65.93;4.40;;;12.80;99.90;;;;;;5105638;28;20167;-87
2022/11/17 11:34:53;;;;;;;65.97;3.65;;;12.80;99.90;;;;;;5104814;28;20414;-86
2022/11/17 11:37:24;;;;;;;64.20;2.92;;;12.90;99.90;;;;;;5083260;28;20181;-87
2022/11/17 11:39:54;;;;;;;65.65;4.95;;;12.90;99.90;;;;;;5105308;28;20191;-87
2022/11/17 11:42:35;;;;;;;64.00;3.53;;;12.80;99.90;;;;;;5174266;22;20282;-85
2022/11/17 11:45:28;;;;;;;65.45;3.65;;;12.80;99.90;;;;;;5062565;28;20232;-85
2022/11/17 11:48:14;;;;;;;66.15;4.10;;;12.80;99.90;;;;;;5062370;28;20483;-85
2022/11/17 11:51:00;;;;;;;65.07;3.80;;;12.70;99.90;;;;;;5093536;28;20229;-85
2022/11/17 11:54:09;;;;;;;64.35;3.28;;;12.70;99.90;;;;;;5061062;28;20176;-85
2022/11/17 11:56:39;;;;;;;64.05;3.13;;;12.80;99.90;;;;;;5055261;28;20723;-85
2022/11/17 11:59:18;;;;;;;64.50;3.03;;;12.80;99.90;;;;;;5062334;28;20168;-85
2022/11/17 12:02:09;;;;;;;66.20;3.15;;;12.90;99.90;;;;;;5060677;28;20157;-85
2022/11/17 12:05:02;;;;;;;64.80;3.70;;;12.80;99.90;;;;;;5060941;28;20212;-84
2022/11/17 12:07:47;;;;;;;66.18;3.50;;;13.00;99.90;;;;;;5060303;28;20226;-84
2022/11/17 12:10:37;;;;;;;65.30;3.60;;;13.10;99.90;;;;;;5060815;28;20212;-85
2022/11/17 12:13:04;;;;;;;65.35;3.90;;;13.00;99.90;;;;;;5060176;28;20153;-85
2022/11/17 12:15:32;;;;;;;65.88;5.18;;;13.00;99.90;;;;;;5059931;28;20192;-84
2022/11/17 12:17:59;;;;;;;66.35;5.25;;;13.20;99.90;;;;;;5060064;28;20161;-84
2022/11/17 12:20:37;;;;;;;68.70;5.10;;;13.20;99.90;;;;;;5060127;28;20183;-84
2022/11/17 12:23:37;;;;;;;67.22;5.20;;;13.30;99.90;;;;;;5060517;28;20526;-85
2022/11/17 12:26:03;;;;;;;65.90;5.38;;;13.40;99.90;;;;;;5059075;28;20156;-85
2022/11/17 12:28:40;;;;;;;66.30;4.97;;;13.40;99.90;;;;;;5059607;28;20615;-84
2022/11/17 12:31:24;;;;;;;69.05;5.72;;;13.40;99.90;;;;;;5060278;28;20243;-84
2022/11/17 12:33:52;;;;;;;65.50;5.53;;;13.40;99.90;;;;;;5062185;28;20157;-84
2022/11/17 12:36:34;;;;;;;65.63;6.07;;;13.50;99.90;;;;;;5060453;28;20184;-85
2022/11/17 12:39:03;;;;;;;66.07;6.00;;;13.60;99.90;;;;;;5061088;28;20155;-86
2022/11/17 12:41:47;;;;;;;67.03;5.43;;;13.80;99.90;;;;;;5060796;28;20177;-85
2022/11/17 12:44:31;;;;;;;65.25;4.90;;;13.80;99.90;;;;;;5059198;28;20228;-85
2022/11/17 12:47:21;;;;;;;66.78;5.55;;;13.80;99.90;;;;;;5060577;28;20160;-85
2022/11/17 12:49:59;;;;;;;65.80;4.93;;;13.90;95.70;;;;;;5057136;28;20705;-85
2022/11/17 12:52:42;;;;;;;65.13;4.30;;;14.00;60.00;;;;;;5058649;28;20165;-85
2022/11/17 12:55:16;;;;;;;65.30;5.10;;;14.10;50.10;;;;;;5058865;28;20185;-85
2022/11/17 12:57:46;;;;;;;65.32;4.85;;;14.00;38.00;;;;;;5059369;28;20234;-85
2022/11/17 13:00:23;;;;;;;67.37;5.70;;;14.00;45.90;;;;;;5059856;28;20184;-85
2022/11/17 13:03:01;;;;;;;69.72;5.93;;;13.90;49.10;;;;;;5060095;28;20399;-85
2022/11/17 13:05:29;;;;;;;65.60;5.43;;;13.80;49.20;;;;;;5061067;28;20153;-85
2022/11/17 13:08:13;;;;;;;66.63;5.35;;;13.80;46.50;;;;;;5058647;28;20559;-85
2022/11/17 13:10:38;;;;;;;65.95;5.03;;;13.80;53.70;;;;;;5058926;28;20223;-85
2022/11/17 13:13:16;;;;;;;66.37;6.37;;;13.80;51.20;;;;;;5060788;28;20165;-84
2022/11/17 13:15:43;;;;;;;66.13;5.78;;;13.80;59.60;;;;;;5058575;28;20200;-85
2022/11/17 13:18:31;;;;;;;65.23;4.57;;;13.70;56.70;;;;;;5059659;28;20169;-85
2022/11/17 13:21:34;;;;;;;66.45;4.78;;;13.80;48.80;;;;;;5059619;28;20458;-85
2022/11/17 13:24:00;;;;;;;66.67;4.40;;;13.80;46.70;;;;;;5060191;28;20180;-84
2022/11/17 13:26:36;;;;;;;68.20;4.87;;;13.90;51.60;;;;;;5060157;28;20399;-85
2022/11/17 13:29:12;;;;;;;64.70;5.18;;;13.80;44.40;;;;;;5058450;28;20149;-85